Ana Sayfa
METAR-TAF:

METAR-TAF

Havaalanları :

Şam Havalimanı

Şam, Suriye

Enlem: 33-25N, Boylam: 036-31E, yükseklik: 608 m

Güncel hava durumu gözlemi

Rapor saat 17:00 UTC de 1 saat ve 0 dakika önce yapıldı.
Rüzgar güneybatıdan 16 kt
Sıcaklık 26°C
Nem 28%
Basınç 1011 hPa
Görüş mesafesi 10 km veya daha fazla
1500 m altında bulut yok ve kümülonimbus yok

METAR: OSDI 191700Z 22016KT CAVOK 26/06 Q1011

Saat: 21:00 (18:00 UTC)

Tahmin

Rapor saat 16:00 UTC de 2 saat ve 0 dakika önce yapıldı.
Ayın 19'si saat 18 UTC'den ayın 20'si saat 24 UTC'ye kadar geçerli Tahmin
Rüzgar güneybatıdan 10 kt
Görüş mesafesi 10 km veya daha fazla
1500 m altında bulut yok ve kümülonimbus yok
Geçici
ayın 20'si saat 09 UTC'den ayın 20'si saat 18 UTC'ye kadar
Rüzgar batı/güneybatıdan 15 kt ve 25 kt'a kadar ani rüzgarlar
Görüş mesafesi 10 km veya daha fazla
3000 ft yükseklikte az bulutlu

TAF: OSDI 191600Z 1918/2024 22010KT CAVOK TEMPO 2009/2018 24015G25KT 9999 FEW030

4.000'den fazla havaalanı için hava durumu gözlemleri ve tahminleri (METAR ve TAF raporları).

Kullanılabilir istasyonlar harita üzerinde sarı ve kırmızı noktalarla gösterilir.

İstasyonun adını görmek için fareyi noktanın üzerinde gezdirin.

Sonrasında hava gözlem ve tahminlerini görmek için tıklayın.

Haritayı değiştirmek için: yaklaştırmak için siyah artı işaretli yeşil düğmeye ve uzaklaştırmak için de eksi işaretli düğmeye hızla tıklayın; bitişik haritalar için yeşil okları kullanın.


METAR-TAF: